Flight Track Log - Related Links

Times and Time Zones

All times are in EDT time to prevent confusion due to time zone crossing. See the CRQ461 flight status page for this flight to view local times or setup timezone preferences in your user account.

Time Position Orientation Groundspeed Altitude Reporting Facility
EDT Latitude Longitude Course Direction KTS MPH feet Rate Location/Type
Wed 09:06:28 AM 44.4000 -76.6500 333° Northwest 110 127 3,300  Level Toronto Center
Wed 09:07:18 AM 44.4333 -76.7167 305° West 170 196 3,600 382 Climbing Montreal Center
Wed 09:08:00 AM 44.5351 -76.7736 333° Northwest  Level FlightAware Approximate
Wed 09:08:18 AM 44.4833 -76.7500 335° Northwest 170 196 4,000  Level Montreal Center
Wed 09:09:00 AM 44.5795 -76.8059 333° Northwest  Level FlightAware Approximate
Wed 09:09:18 AM 44.5167 -76.7667 340° North 180 207 4,400  Level Montreal Center
Wed 09:10:00 AM 44.6239 -76.8381 333° Northwest  Level FlightAware Approximate
Wed 09:10:18 AM 44.5667 -76.7833 347° North 180 207 4,900  Level Montreal Center
Wed 09:11:00 AM 44.6683 -76.8705 333° Northwest  Level FlightAware Approximate
Wed 09:11:18 AM 44.6167 -76.8333 325° Northwest 180 207 5,300  Level Montreal Center
Wed 09:12:18 AM 44.6667 -76.8667 335° Northwest 180 207 5,800 400 Climbing Montreal Center
Wed 09:13:18 AM 44.7000 -76.9167 313° West 180 207 6,100 350 Climbing Montreal Center
Wed 09:14:18 AM 44.7500 -76.9333 347° North 180 207 6,500 450 Climbing Montreal Center
Wed 09:15:18 AM 44.8000 -76.9667 335° Northwest 180 207 7,000 500 Climbing Montreal Center
Wed 09:16:18 AM 44.8333 -77.0000 325° Northwest 180 207 7,500 450 Climbing Montreal Center
Wed 09:17:18 AM 44.8833 -77.0333 335° Northwest 180 207 7,900 250 Climbing Montreal Center
Wed 09:18:18 AM 44.9333 -77.0500 347° North 180 207 8,000 50 Climbing Montreal Center
Wed 09:19:18 AM 44.9833 -77.1000 325° Northwest 190 219 8,000  Level Montreal Center
Wed 09:20:18 AM 45.0167 -77.1500 313° West 190 219 8,000 -50 Level Montreal Center
Wed 09:21:18 AM 45.0500 -77.2000 313° West 190 219 7,900 -50 Descending Montreal Center
Wed 09:22:18 AM 45.0833 -77.2500 313° West 190 219 7,900  Level Montreal Center
Wed 09:23:18 AM 45.1333 -77.3000 325° Northwest 190 219 7,900  Level Montreal Center
Wed 09:24:18 AM 45.1667 -77.3500 313° West 190 219 7,900  Level Montreal Center
Wed 09:25:18 AM 45.2000 -77.4000 313° West 190 219 7,900 50 Level Montreal Center
Wed 09:26:18 AM 45.2500 -77.4500 325° Northwest 190 219 8,000 50 Climbing Montreal Center
Wed 09:27:18 AM 45.3000 -77.4667 347° North 190 219 8,000  Level Montreal Center
Wed 09:28:18 AM 45.3333 -77.5167 313° West 190 219 8,000  Level Montreal Center
Wed 09:29:18 AM 45.3833 -77.5667 325° Northwest 190 219 8,000  Level Montreal Center
Wed 09:30:18 AM 45.4167 -77.6167 314° West 180 207 8,000 -50 Level Montreal Center
Wed 09:31:18 AM 45.4667 -77.6333 347° North 190 219 7,900 -50 Descending Montreal Center
Wed 09:32:18 AM 45.5167 -77.6833 325° Northwest 190 219 7,900 50 Level Montreal Center
Wed 09:33:18 AM 45.5500 -77.7333 314° West 190 219 8,000 50 Climbing Montreal Center
Wed 09:34:18 AM 45.6000 -77.7833 325° Northwest 190 219 8,000  Level Montreal Center
Wed 09:35:18 AM 45.6333 -77.8333 314° West 190 219 8,000 46 Level Montreal Center
Wed 09:36:28 AM 45.6667 -77.8500 341° North 190 219 8,100 46 Climbing Toronto Center
Wed 09:37:28 AM 45.7167 -77.8833 335° Northwest 190 219 8,100  Level Toronto Center
Wed 09:38:28 AM 45.7500 -77.9333 314° West 190 219 8,100  Level Toronto Center
Wed 09:39:28 AM 45.8000 -77.9833 325° Northwest 190 219 8,100  Level Toronto Center
Wed 09:40:28 AM 45.8500 -77.9833 360° North 190 219 8,100 -50 Level Toronto Center
Wed 09:41:28 AM 45.9000 -78.0000 347° North 190 219 8,000 -50 Descending Toronto Center
Wed 09:42:28 AM 45.9500 -78.0333 335° Northwest 190 219 8,000  Level Toronto Center
Wed 09:43:28 AM 46.0000 -78.0500 347° North 190 219 8,000 50 Level Toronto Center
Wed 09:44:28 AM 46.0500 -78.0667 347° North 190 219 8,100 50 Climbing Toronto Center
Wed 09:45:28 AM 46.1000 -78.1000 335° Northwest 190 219 8,100 -50 Level Toronto Center
Wed 09:46:28 AM 46.1500 -78.1167 347° North 190 219 8,000 -50 Descending Toronto Center
Wed 09:47:28 AM 46.2000 -78.1333 347° North 190 219 8,000  Level Toronto Center
Wed 09:48:28 AM 46.2500 -78.1667 335° Northwest 190 219 8,000  Level Toronto Center
Wed 09:49:28 AM 46.3000 -78.1833 347° North 190 219 8,000 50 Level Toronto Center
Wed 09:50:28 AM 46.3500 -78.1833 360° North 190 219 8,100  Climbing Toronto Center
Wed 09:51:28 AM 46.4000 -78.2333 325° Northwest 190 219 8,000 -50 Descending Toronto Center
Wed 09:52:28 AM 46.4500 -78.2333 360° North 190 219 8,000 50 Level Toronto Center
Wed 09:53:28 AM 46.5000 -78.2500 347° North 190 219 8,100  Climbing Toronto Center
Wed 09:54:28 AM 46.5500 -78.2667 347° North 190 219 8,000 -50 Descending Toronto Center
Wed 09:55:28 AM 46.6000 -78.3000 335° Northwest 190 219 8,000  Level Toronto Center
Wed 09:56:28 AM 46.6500 -78.3167 347° North 190 219 8,000  Level Toronto Center
Wed 09:57:28 AM 46.7000 -78.3500 335° Northwest 190 219 8,000 50 Level Toronto Center
Wed 09:58:28 AM 46.7500 -78.3667 347° North 190 219 8,100  Climbing Toronto Center
Wed 09:59:28 AM 46.8000 -78.3833 347° North 190 219 8,000  Descending Toronto Center
Wed 10:00:28 AM 46.8667 -78.4167 341° North 190 219 8,100  Climbing Toronto Center
Wed 10:01:28 AM 46.9167 -78.4333 347° North 190 219 8,000 -50 Descending Toronto Center
Wed 10:02:28 AM 46.9667 -78.4667 336° Northwest 190 219 8,000  Level Toronto Center
Wed 10:03:28 AM 47.0167 -78.4833 347° North 190 219 8,000 50 Level Toronto Center
Wed 10:04:28 AM 47.0667 -78.5000 347° North 190 219 8,100  Climbing Toronto Center
Wed 10:05:28 AM 47.1167 -78.5000 360° North 190 219 8,000 -50 Descending Toronto Center
Wed 10:06:28 AM 47.1667 -78.5333 336° Northwest 190 219 8,000 -55 Level Toronto Center
Wed 10:07:18 AM 47.2000 -78.5833 314° West 190 219 7,900 -55 Descending Montreal Center
Wed 10:08:18 AM 47.2500 -78.5833 360° North 180 207 7,900  Level Montreal Center
Wed 10:09:18 AM 47.3000 -78.6167 336° Northwest 190 219 7,900 50 Level Montreal Center
Wed 10:10:18 AM 47.3500 -78.6500 336° Northwest 190 219 8,000 50 Climbing Montreal Center
Wed 10:11:18 AM 47.4000 -78.6500 360° North 190 219 8,000  Level Montreal Center
Wed 10:12:18 AM 47.4500 -78.6667 347° North 180 207 8,000  Level Montreal Center
Wed 10:13:18 AM 47.5000 -78.7000 336° Northwest 180 207 8,000  Level Montreal Center
Wed 10:14:18 AM 47.5500 -78.7000 360° North 180 207 8,000 -50 Level Montreal Center
Wed 10:15:18 AM 47.6000 -78.7333 336° Northwest 190 219 7,900 -50 Descending Montreal Center
Wed 10:16:18 AM 47.6500 -78.7667 336° Northwest 190 219 7,900  Level Montreal Center
Wed 10:17:18 AM 47.7000 -78.7667 360° North 180 207 7,900  Level Montreal Center
Wed 10:18:18 AM 47.7500 -78.7833 347° North 180 207 7,900 50 Level Montreal Center
Wed 10:19:18 AM 47.8000 -78.8167 336° Northwest 190 219 8,000 100 Climbing Montreal Center
Wed 10:22:00 AM 47.8779 -78.8413 348° North  Level FlightAware Approximate
Wed 10:29:00 AM 48.2320 -78.9672 341° North  Level FlightAware Approximate
Wed 10:30:00 AM 48.2811 -78.9927 341° North  Level FlightAware Approximate
Wed 10:31:00 AM 48.3302 -79.0182 341° North  Level FlightAware Approximate
Wed 10:32:00 AM 48.3792 -79.0438 341° North  Level FlightAware Approximate
Wed 10:33:00 AM 48.4283 -79.0695 341° North  Level FlightAware Approximate
Wed 10:34:00 AM 48.4773 -79.0952 341° North  Level FlightAware Approximate
Wed 10:35:00 AM 48.5264 -79.1209 341° North  Level FlightAware Approximate
Wed 10:36:00 AM 48.5755 -79.1462 342° North  Level FlightAware Approximate
Wed 10:37:00 AM 48.6247 -79.1711 342° North  Level FlightAware Approximate
Wed 10:38:00 AM 48.6740 -79.1960 342° North  Level FlightAware Approximate
Wed 10:39:00 AM 48.7232 -79.2209 342° North  Level FlightAware Approximate
Wed 10:40:00 AM 48.7725 -79.2460 341° North  Level FlightAware Approximate
Wed 10:41:00 AM 48.8218 -79.2711 341° North  Level FlightAware Approximate
Wed 10:42:00 AM 48.8711 -79.2963 341° North  Level FlightAware Approximate
Wed 10:43:00 AM 48.9204 -79.3215 341° North  Level FlightAware Approximate
Wed 10:44:00 AM 48.9697 -79.3467 341° North  Level FlightAware Approximate
Wed 10:45:00 AM 49.0189 -79.3720 341° North  Level FlightAware Approximate
Wed 10:46:00 AM 49.0682 -79.3974 341° North  Level FlightAware Approximate
Wed 10:47:00 AM 49.1175 -79.4228 341° North  Level FlightAware Approximate
Wed 10:48:00 AM 49.1667 -79.4483 341° North  Level FlightAware Approximate
Wed 10:49:00 AM 49.2160 -79.4738 341° North  Level FlightAware Approximate
Wed 10:50:00 AM 49.2652 -79.4993 341° North  Level FlightAware Approximate
Wed 10:51:00 AM 49.3144 -79.5249 341° North  Level FlightAware Approximate
Wed 10:52:00 AM 49.3637 -79.5506 341° North  Level FlightAware Approximate
Wed 10:53:00 AM 49.4129 -79.5763 341° North  Level FlightAware Approximate
Wed 10:54:00 AM 49.4621 -79.6021 341° North  Level FlightAware Approximate
Wed 10:55:00 AM 49.5113 -79.6279 341° North  Level FlightAware Approximate
Wed 10:56:00 AM 49.5606 -79.6538 341° North  Level FlightAware Approximate
Wed 10:57:00 AM 49.6097 -79.6797 341° North  Level FlightAware Approximate
Wed 10:58:00 AM 49.6590 -79.7057 341° North  Level FlightAware Approximate
Wed 10:59:00 AM 49.7081 -79.7317 341° North  Level FlightAware Approximate
Wed 11:00:00 AM 49.7573 -79.7578 341° North  Level FlightAware Approximate
Wed 11:01:00 AM 49.8065 -79.7839 341° North  Level FlightAware Approximate
Wed 11:02:00 AM 49.8557 -79.8101 341° North  Level FlightAware Approximate
Wed 11:03:00 AM 49.9049 -79.8363 341° North  Level FlightAware Approximate
Wed 11:04:00 AM 49.9540 -79.8626 341° North  Level FlightAware Approximate
Wed 11:05:00 AM 50.0032 -79.8889 341° North  Level FlightAware Approximate
Wed 11:06:00 AM 50.0523 -79.9153 341° North  Level FlightAware Approximate
Wed 11:07:00 AM 50.1015 -79.9418 341° North  Level FlightAware Approximate
Wed 11:08:00 AM 50.1506 -79.9683 341° North  Level FlightAware Approximate
Wed 11:09:00 AM 50.1997 -79.9948 341° North  Level FlightAware Approximate
Wed 11:10:00 AM 50.2489 -80.0214 341° North  Level FlightAware Approximate
Wed 11:11:00 AM 50.2980 -80.0481 341° North  Level FlightAware Approximate
Wed 11:12:00 AM 50.3471 -80.0748 341° North  Level FlightAware Approximate
Wed 11:13:00 AM 50.3962 -80.1016 341° North  Level FlightAware Approximate
Wed 11:14:00 AM 50.4453 -80.1285 341° North  Level FlightAware Approximate
Wed 11:15:00 AM 50.4944 -80.1553 341° North  Level FlightAware Approximate
Wed 11:16:00 AM 50.5435 -80.1823 341° North  Level FlightAware Approximate
Wed 11:17:00 AM 50.5926 -80.2093 341° North  Level FlightAware Approximate
Wed 11:18:00 AM 50.6417 -80.2364 341° North  Level FlightAware Approximate
Wed 11:19:00 AM 50.6908 -80.2635 341° North  Level FlightAware Approximate
Wed 11:20:00 AM 50.7398 -80.2906 341° North  Level FlightAware Approximate
Wed 11:21:00 AM 50.7889 -80.3179 341° North  Level FlightAware Approximate
Wed 11:22:00 AM 50.8378 -80.3460 339° North  Level FlightAware Approximate
Wed 11:23:00 AM 50.8864 -80.3752 339° North  Level FlightAware Approximate
Wed 11:24:00 AM 50.9349 -80.4051 339° North  Level FlightAware Approximate
Wed 11:25:00 AM 50.9832 -80.4353 339° North  Level FlightAware Approximate
Wed 11:26:00 AM 51.0316 -80.4656 339° North  Level FlightAware Approximate
Wed 11:27:00 AM 51.0813 -80.4855 339° North  Level FlightAware Approximate
Wed 11:28:00 AM 51.1300 -80.5147 339° North  Level FlightAware Approximate
Wed 11:29:00 AM 51.1796 -80.5398 343° North  Level FlightAware Approximate
Wed 11:30:00 AM 51.2286 -80.5671 339° North  Level FlightAware Approximate
Wed 11:31:00 AM 51.2773 -80.5964 339° North  Level FlightAware Approximate
Wed 11:32:00 AM 51.2833 -80.6000 339° North  Level FlightAware Approximate
Wed 11:33:00 AM 51.2911 -80.6078 339° North  Level Estimated
Wed 11:34:00 AM 51.2911 -80.6078 339° North  Level Estimated
Wed 11:35:00 AM 51.2911 -80.6078 339° North  Level Estimated
Wed 11:36:00 AM 51.2911 -80.6078 339° North  Level Estimated
Wed 11:37:00 AM 51.2911 -80.6078 339° North  Level Estimated
Wed 11:38:00 AM 51.2911 -80.6078 339° North  Level Estimated
Wed 11:39:00 AM 51.2911 -80.6078 339° North  Level Estimated
Wed 11:40:00 AM 51.2911 -80.6078 339° North  Level Estimated
Wed 11:41:00 AM 51.2911 -80.6078 339° North  Level Estimated
Wed 11:42:00 AM 51.2911 -80.6078 339° North  Level Estimated
Wed 11:43:00 AM 51.2911 -80.6078 339° North  Level Estimated
Wed 11:44:00 AM 51.2911 -80.6078 339° North  Level Estimated
Wed 11:45:00 AM 51.2911 -80.6078 339° North  Level Estimated

Login

Don't have an account? Register now (free) for customized features, flight alerts, and more!